createdAt,value
2023-03-06T00:02:07.902Z,100190.44
2023-03-06T00:07:09.414Z,100185.63
2023-03-06T00:12:10.897Z,100184.25
2023-03-06T00:17:12.438Z,100187.41
2023-03-06T00:22:14.893Z,100179.28
2023-03-06T00:27:16.353Z,100170.66
2023-03-06T00:32:17.849Z,100162.00
2023-03-06T00:37:19.709Z,100153.59
2023-03-06T00:42:21.180Z,100154.81
2023-03-06T00:47:22.634Z,100150.19
2023-03-06T00:52:24.090Z,100149.66
2023-03-06T00:57:25.623Z,100136.03
2023-03-06T01:02:27.170Z,100138.25
2023-03-06T01:07:28.678Z,100133.19
2023-03-06T01:12:30.170Z,100127.94
2023-03-06T01:17:31.623Z,100115.69
2023-03-06T01:22:33.111Z,100116.91
2023-03-06T01:27:34.554Z,100113.53
2023-03-06T01:32:36.010Z,100114.72
2023-03-06T01:37:37.556Z,100103.38
2023-03-06T01:42:39.061Z,100090.66
2023-03-06T01:47:40.565Z,100095.69
2023-03-06T01:52:50.827Z,100087.31
2023-03-06T01:57:53.559Z,100084.84
2023-03-06T02:03:21.962Z,100074.91
2023-03-06T02:08:23.681Z,100068.78
2023-03-06T02:13:25.158Z,100070.97
2023-03-06T02:18:26.627Z,100064.38
2023-03-06T02:23:45.929Z,100063.56
2023-03-06T02:28:47.407Z,100065.72
2023-03-06T02:34:20.210Z,100056.44
2023-03-06T02:39:24.011Z,100057.84
2023-03-06T02:44:25.493Z,100054.13
2023-03-06T02:49:26.941Z,100053.34
2023-03-06T02:54:28.406Z,100053.06
2023-03-06T02:59:29.872Z,100043.56
2023-03-06T03:04:31.403Z,100033.41
2023-03-06T03:09:36.848Z,100024.41
2023-03-06T03:14:38.377Z,100027.34
2023-03-06T03:19:39.838Z,100014.31
2023-03-06T03:24:42.406Z,100029.25
2023-03-06T03:29:43.912Z,100021.34
2023-03-06T03:34:45.389Z,100019.88
2023-03-06T03:39:46.898Z,100017.91
2023-03-06T03:44:48.374Z,100017.56
2023-03-06T03:49:49.850Z,100006.16
2023-03-06T03:54:51.331Z,100006.22
2023-03-06T03:59:52.798Z,99991.53
2023-03-06T04:04:54.324Z,99989.13
2023-03-06T04:09:55.783Z,99987.31
2023-03-06T04:14:57.270Z,99993.41
2023-03-06T04:19:58.750Z,99985.97
2023-03-06T04:25:00.227Z,99970.88
2023-03-06T04:30:02.749Z,99978.81
2023-03-06T04:35:04.373Z,99976.47
2023-03-06T04:40:06.226Z,99987.41
2023-03-06T04:45:08.569Z,99980.66
2023-03-06T04:50:10.550Z,99980.00
2023-03-06T04:55:13.229Z,99973.34
2023-03-06T05:00:19.232Z,99972.22
2023-03-06T05:05:20.734Z,99967.84
2023-03-06T05:10:22.471Z,99965.38
2023-03-06T05:15:23.969Z,99954.84
2023-03-06T05:20:25.470Z,99952.91
2023-03-06T05:25:26.964Z,99959.19
2023-03-06T05:30:28.432Z,99952.88
2023-03-06T05:35:29.969Z,99947.78
2023-03-06T05:40:31.737Z,99946.00
2023-03-06T05:45:33.270Z,99935.97
2023-03-06T05:50:34.899Z,99935.53
2023-03-06T05:55:36.383Z,99934.50
2023-03-06T06:00:37.842Z,99931.84
2023-03-06T06:05:39.788Z,99927.75
2023-03-06T06:10:41.415Z,99939.91
2023-03-06T06:15:42.897Z,99937.88
2023-03-06T06:20:44.366Z,99938.09
2023-03-06T06:25:45.847Z,99937.13
2023-03-06T06:30:47.366Z,99942.56
2023-03-06T06:35:48.927Z,99932.00
2023-03-06T06:41:19.306Z,99934.28
2023-03-06T06:46:39.936Z,99926.56
2023-03-06T06:51:33.657Z,99925.09
2023-03-06T06:56:35.195Z,99938.16
2023-03-06T07:01:36.737Z,99938.34
2023-03-06T07:06:38.248Z,99936.97
2023-03-06T07:11:40.013Z,99929.63
2023-03-06T07:16:41.497Z,99930.41
2023-03-06T07:21:42.984Z,99930.44
2023-03-06T07:26:47.886Z,99927.75
2023-03-06T07:31:49.334Z,99932.97
2023-03-06T07:36:50.919Z,99929.00
2023-03-06T07:41:53.448Z,99929.59
2023-03-06T07:46:55.060Z,99937.53
2023-03-06T07:51:56.587Z,99938.69
2023-03-06T07:56:58.320Z,99955.03
2023-03-06T08:01:59.805Z,99946.09
2023-03-06T08:07:01.275Z,99940.44
2023-03-06T08:12:02.754Z,99939.66
2023-03-06T08:17:04.302Z,99939.13
2023-03-06T08:22:06.215Z,99942.50
2023-03-06T08:27:07.684Z,99939.72
2023-03-06T08:32:11.549Z,99942.16
2023-03-06T08:37:13.026Z,99948.91
2023-03-06T08:42:15.847Z,99950.97
2023-03-06T08:47:17.389Z,99949.19
2023-03-06T08:52:19.816Z,99957.13
2023-03-06T08:57:21.287Z,99960.47
2023-03-06T09:02:22.757Z,99958.13
2023-03-06T09:07:24.291Z,99957.44
2023-03-06T09:12:25.830Z,99957.56
2023-03-06T09:17:27.434Z,99960.28
2023-03-06T09:22:28.898Z,99960.41
2023-03-06T09:27:30.398Z,99959.88
2023-03-06T09:32:31.960Z,99950.97
2023-03-06T09:37:33.493Z,99967.38
2023-03-06T09:42:36.114Z,99963.66
2023-03-06T09:47:48.188Z,99962.72
2023-03-06T09:53:08.661Z,99960.25
2023-03-06T09:58:18.206Z,99955.97
2023-03-06T10:03:38.070Z,99954.88
2023-03-06T10:08:51.366Z,99954.13
2023-03-06T10:14:09.886Z,99958.56
2023-03-06T10:19:15.875Z,99950.47
2023-03-06T10:24:25.241Z,99944.53
2023-03-06T10:29:34.875Z,99937.69
2023-03-06T10:34:37.978Z,99937.34
2023-03-06T10:39:39.434Z,99929.41
2023-03-06T10:44:40.908Z,99925.75
2023-03-06T10:49:42.395Z,99927.41
2023-03-06T10:54:44.056Z,99930.66
2023-03-06T10:59:58.675Z,99917.69
2023-03-06T11:05:00.696Z,99921.31
2023-03-06T11:10:03.886Z,99906.53
2023-03-06T11:15:14.307Z,99911.19
2023-03-06T11:20:24.477Z,99917.25
2023-03-06T11:25:41.360Z,99904.44
2023-03-06T11:30:47.405Z,99906.03
2023-03-06T11:36:00.060Z,99897.34
2023-03-06T11:41:02.688Z,99892.81
2023-03-06T11:46:11.936Z,99889.97
2023-03-06T11:51:22.828Z,99884.25
2023-03-06T11:56:31.870Z,99881.41
2023-03-06T12:01:47.555Z,99882.19
2023-03-06T12:07:10.513Z,99880.50
2023-03-06T12:12:27.635Z,99880.97
2023-03-06T12:17:53.939Z,99870.91
2023-03-06T12:23:14.925Z,99857.47
2023-03-06T12:28:31.908Z,99860.13
2023-03-06T12:33:54.926Z,99856.78
2023-03-06T12:39:02.153Z,99857.63
2023-03-06T12:44:31.356Z,99856.06
2023-03-06T12:49:38.756Z,99837.09
2023-03-06T12:54:40.828Z,99843.31
2023-03-06T12:59:47.859Z,99836.59
2023-03-06T13:04:56.778Z,99827.63
2023-03-06T13:10:23.250Z,99830.69
2023-03-06T13:15:33.579Z,99820.41
2023-03-06T13:20:43.542Z,99825.66
2023-03-06T13:25:49.141Z,99822.44
2023-03-06T13:30:52.675Z,99815.19
2023-03-06T13:36:13.819Z,99810.31
2023-03-06T13:41:24.745Z,99812.84
2023-03-06T13:46:31.274Z,99807.75
2023-03-06T13:51:37.288Z,99801.00
2023-03-06T13:57:06.344Z,99791.09
2023-03-06T14:02:25.963Z,99782.13
2023-03-06T14:07:27.340Z,99781.84
2023-03-06T14:12:31.608Z,99777.09
2023-03-06T14:17:34.551Z,99769.06
2023-03-06T14:22:36.105Z,99752.56
2023-03-06T14:27:51.546Z,99757.31
2023-03-06T14:32:54.074Z,99750.25
2023-03-06T14:37:58.000Z,99730.88
2023-03-06T14:43:21.959Z,99723.53
2023-03-06T14:48:24.793Z,99730.81
2023-03-06T14:53:30.433Z,99720.88
2023-03-06T14:58:33.483Z,99705.72
2023-03-06T15:03:51.250Z,99710.47
2023-03-06T15:09:17.356Z,99693.72
2023-03-06T15:14:19.993Z,99686.81
2023-03-06T15:19:21.677Z,99683.03
2023-03-06T15:24:32.314Z,99671.28
2023-03-06T15:29:33.837Z,99668.31
2023-03-06T15:34:35.302Z,99656.47
2023-03-06T15:39:40.674Z,99652.53
2023-03-06T15:44:42.290Z,99643.22
2023-03-06T15:49:43.773Z,99628.78
2023-03-06T15:54:45.270Z,99622.91
2023-03-06T15:59:46.754Z,99611.09
2023-03-06T16:04:48.350Z,99595.84
2023-03-06T16:09:49.874Z,99596.97
2023-03-06T16:14:51.334Z,99591.16
2023-03-06T16:19:52.987Z,99580.03
2023-03-06T16:24:54.442Z,99563.00
2023-03-06T16:29:55.909Z,99568.50
2023-03-06T16:34:57.367Z,99556.25
2023-03-06T16:39:58.820Z,99552.88
2023-03-06T16:45:00.291Z,99555.81
2023-03-06T16:50:02.315Z,99550.06
2023-03-06T16:55:04.312Z,99539.63
2023-03-06T17:00:06.584Z,99528.53
2023-03-06T17:05:08.634Z,99513.63
2023-03-06T17:10:12.427Z,99508.88
2023-03-06T17:15:13.991Z,99505.81
2023-03-06T17:20:15.621Z,99497.81
2023-03-06T17:25:17.098Z,99504.38
2023-03-06T17:30:18.810Z,99486.25
2023-03-06T17:35:20.316Z,99480.31
2023-03-06T17:40:21.811Z,99478.72
2023-03-06T17:45:23.262Z,99466.69
2023-03-06T17:50:24.741Z,99471.56
2023-03-06T17:55:27.182Z,99458.47
2023-03-06T18:00:28.645Z,99442.97
2023-03-06T18:05:30.174Z,99439.47
2023-03-06T18:10:31.935Z,99434.22
2023-03-06T18:15:33.409Z,99417.34
2023-03-06T18:20:39.888Z,99409.94
2023-03-06T18:25:41.441Z,99383.09
2023-03-06T18:30:42.956Z,99393.09
2023-03-06T18:35:44.707Z,99382.41
2023-03-06T18:40:46.303Z,99363.06
2023-03-06T18:45:57.012Z,99353.13
2023-03-06T18:51:09.316Z,99347.47
2023-03-06T18:56:16.158Z,99324.56
2023-03-06T19:01:17.798Z,99305.56
2023-03-06T19:06:20.211Z,99308.38
2023-03-06T19:11:21.686Z,99293.25
2023-03-06T19:16:25.126Z,99303.59
2023-03-06T19:21:27.090Z,99298.22
2023-03-06T19:26:28.665Z,99279.78
2023-03-06T19:31:30.359Z,99270.94
2023-03-06T19:36:34.098Z,99245.53
2023-03-06T19:41:35.576Z,99252.66
2023-03-06T19:46:37.597Z,99252.19
2023-03-06T19:51:39.152Z,99221.91
2023-03-06T19:56:40.671Z,99205.53
2023-03-06T20:01:42.206Z,99214.28
2023-03-06T20:06:46.554Z,99178.38
2023-03-06T20:11:48.048Z,99166.84
2023-03-06T20:16:49.548Z,99152.00
2023-03-06T20:21:51.064Z,99135.22
2023-03-06T20:26:57.271Z,99107.72
2023-03-06T20:31:58.745Z,99101.13
2023-03-06T20:37:00.249Z,99093.22
2023-03-06T20:42:01.762Z,99067.25
2023-03-06T20:47:03.267Z,99072.31
2023-03-06T20:52:04.806Z,99059.34
2023-03-06T20:57:06.267Z,99031.38
2023-03-06T21:02:09.651Z,99033.19
2023-03-06T21:07:11.167Z,99028.06
2023-03-06T21:12:12.644Z,98988.53
2023-03-06T21:17:14.117Z,98991.13
2023-03-06T21:22:15.598Z,98964.38
2023-03-06T21:27:17.063Z,98962.63
2023-03-06T21:32:18.576Z,98956.97
2023-03-06T21:37:20.066Z,98941.44
2023-03-06T21:42:21.561Z,98934.16
2023-03-06T21:47:23.047Z,98930.00
2023-03-06T21:52:26.469Z,98909.28
2023-03-06T21:57:28.027Z,98906.78
2023-03-06T22:02:29.480Z,98885.34
2023-03-06T22:07:31.074Z,98875.69
2023-03-06T22:12:35.933Z,98872.44
2023-03-06T22:17:37.419Z,98853.84
2023-03-06T22:22:38.897Z,98847.59
2023-03-06T22:27:40.429Z,98841.69
2023-03-06T22:32:41.907Z,98824.94
2023-03-06T22:37:43.938Z,98826.69
2023-03-06T22:42:45.401Z,98808.00
2023-03-06T22:47:46.873Z,98807.22
2023-03-06T22:52:48.427Z,98801.44
2023-03-06T22:57:49.882Z,98796.63
2023-03-06T23:02:51.406Z,98796.78
2023-03-06T23:07:52.874Z,98772.91
2023-03-06T23:12:54.359Z,98771.41
2023-03-06T23:17:55.821Z,98763.91
2023-03-06T23:22:57.310Z,98757.84
2023-03-06T23:27:58.770Z,98737.66
2023-03-06T23:33:00.261Z,98725.31
2023-03-06T23:38:02.464Z,98737.13
2023-03-06T23:43:03.930Z,98721.28
2023-03-06T23:48:07.276Z,98716.06
2023-03-06T23:53:08.772Z,98716.69
2023-03-06T23:58:10.267Z,98712.88
